Time;durP1;ratioP1;P1;durP2;ratioP2;P2;SDS_P1;SDS_P2;PMS_P1;PMS_P2;Temp;Humidity;BMP_temperature;BMP_pressure;BME280_temperature;BME280_humidity;BME280_pressure;Samples;Min_cycle;Max_cycle;Signal;HPM_P1;HPM_P2
2022/02/01 00:01:58;;;;;;;1.30;1.20;;;4.70;99.90;;;;;;4999333;28;20459;-81
2022/02/01 00:04:52;;;;;;;1.20;1.10;;;4.70;99.90;;;;;;4999509;28;20384;-82
2022/02/01 00:07:49;;;;;;;2.17;1.90;;;4.80;99.90;;;;;;4998945;28;20374;-81
2022/02/01 00:10:47;;;;;;;4.13;1.50;;;4.80;99.90;;;;;;4999431;28;20740;-81
2022/02/01 00:13:42;;;;;;;1.23;1.13;;;4.90;99.90;;;;;;4999717;28;20389;-80
2022/02/01 00:34:28;;;;;;;1.97;1.67;;;4.90;99.90;;;;;;5008849;28;20441;-80
2022/02/01 00:37:18;;;;;;;1.67;1.57;;;4.80;99.90;;;;;;5011237;28;20448;-79
2022/02/01 00:40:10;;;;;;;1.77;1.67;;;4.80;99.90;;;;;;5002117;28;20412;-81
2022/02/01 00:42:54;;;;;;;1.63;1.53;;;4.70;99.90;;;;;;4998031;28;20418;-81
2022/02/01 00:45:39;;;;;;;2.20;1.80;;;4.60;99.90;;;;;;4992181;28;20385;-81
2022/02/01 00:48:24;;;;;;;1.73;1.63;;;4.60;99.90;;;;;;4998083;28;20986;-81
2022/02/01 00:51:11;;;;;;;2.07;1.97;;;4.60;99.90;;;;;;4997680;28;20396;-81
2022/02/01 00:53:57;;;;;;;1.40;1.30;;;4.60;99.90;;;;;;4997686;28;20371;-80
2022/02/01 00:56:41;;;;;;;2.20;2.00;;;4.60;99.90;;;;;;4997750;28;20955;-81
2022/02/01 00:59:26;;;;;;;2.00;1.43;;;4.50;99.90;;;;;;4997179;28;20391;-81
2022/02/01 01:02:10;;;;;;;2.57;2.37;;;4.50;99.90;;;;;;4996413;28;20551;-81
2022/02/01 01:04:55;;;;;;;2.10;2.00;;;4.50;99.90;;;;;;4997081;28;20436;-80
2022/02/01 01:07:40;;;;;;;1.73;1.63;;;4.40;99.90;;;;;;4997293;28;20909;-81
2022/02/01 01:10:24;;;;;;;1.87;1.67;;;4.30;99.90;;;;;;4982467;28;20713;-80
2022/02/01 01:13:37;;;;;;;2.13;2.03;;;4.20;99.90;;;;;;4997618;28;20397;-81
2022/02/01 01:16:33;;;;;;;3.77;2.50;;;4.20;99.90;;;;;;4996898;28;20428;-80
2022/02/01 01:43:42;;;;;;;3.23;2.93;;;4.20;99.90;;;;;;5001253;28;20388;-81
2022/02/01 01:52:49;;;;;;;7.10;3.17;;;4.20;99.90;;;;;;4989995;28;20396;-79
2022/02/01 01:55:23;;;;;;;3.17;2.80;;;4.30;99.90;;;;;;5001338;28;20388;-81
2022/02/01 01:58:08;;;;;;;2.80;2.60;;;4.30;99.90;;;;;;5002717;28;20487;-81
2022/02/01 02:03:54;;;;;;;3.37;3.17;;;4.20;99.90;;;;;;5002290;28;20362;-81
2022/02/01 02:06:38;;;;;;;3.70;3.27;;;4.20;99.90;;;;;;5001829;28;20387;-80
2022/02/01 02:09:23;;;;;;;10.10;3.23;;;4.20;99.90;;;;;;5002901;28;20948;-79
2022/02/01 02:12:15;;;;;;;4.47;3.30;;;4.20;99.90;;;;;;5002157;28;20392;-80
2022/02/01 02:15:00;;;;;;;3.93;3.53;;;4.30;99.90;;;;;;5000865;28;20385;-80
2022/02/01 02:17:44;;;;;;;3.00;2.60;;;4.20;99.90;;;;;;5000437;28;20921;-81
2022/02/01 02:20:42;;;;;;;4.30;3.20;;;4.10;99.90;;;;;;4985864;28;20388;-80
2022/02/01 02:23:27;;;;;;;3.00;2.70;;;4.20;99.90;;;;;;4985841;28;20964;-80
2022/02/01 02:26:13;;;;;;;2.90;2.60;;;4.20;99.90;;;;;;5000696;28;20413;-81
2022/02/01 02:28:59;;;;;;;2.80;2.37;;;4.10;99.90;;;;;;5001134;28;20920;-81
2022/02/01 02:31:43;;;;;;;3.77;3.10;;;4.20;99.90;;;;;;5001148;28;20456;-81
2022/02/01 02:34:27;;;;;;;3.40;2.80;;;4.20;99.90;;;;;;4986756;28;20405;-81
2022/02/01 02:37:16;;;;;;;3.50;2.87;;;4.20;99.90;;;;;;5001801;28;20482;-81
2022/02/01 02:40:16;;;;;;;6.30;3.43;;;4.20;99.90;;;;;;5002685;28;20433;-79
2022/02/01 02:45:56;;;;;;;4.00;2.97;;;4.20;99.90;;;;;;4999537;28;20442;-80
2022/02/01 02:48:41;;;;;;;3.07;2.57;;;4.20;99.90;;;;;;4999777;28;20476;-80
2022/02/01 02:51:26;;;;;;;4.50;3.70;;;4.10;99.90;;;;;;5000133;28;20396;-80
2022/02/01 02:54:13;;;;;;;6.83;4.67;;;4.10;99.90;;;;;;4999854;28;20704;-80
2022/02/01 02:57:00;;;;;;;5.03;4.27;;;4.10;99.90;;;;;;4984815;28;20461;-81
2022/02/01 02:59:45;;;;;;;5.13;3.50;;;4.10;99.90;;;;;;4999182;28;20444;-81
2022/02/01 03:02:33;;;;;;;6.43;3.80;;;4.10;99.90;;;;;;4999175;28;20548;-80
2022/02/01 03:05:17;;;;;;;6.80;4.70;;;4.20;99.90;;;;;;5000243;28;20459;-80
2022/02/01 03:08:02;;;;;;;6.97;4.07;;;4.10;99.90;;;;;;5000527;28;20448;-80
2022/02/01 03:10:46;;;;;;;4.67;4.27;;;4.10;99.90;;;;;;5000640;28;20401;-81
2022/02/01 03:13:33;;;;;;;6.37;4.57;;;4.10;99.90;;;;;;4999498;28;20400;-80
2022/02/01 03:19:58;;;;;;;4.13;3.73;;;4.10;99.90;;;;;;4999041;28;20389;-80
2022/02/01 03:22:26;;;;;;;7.20;3.50;;;4.10;99.90;;;;;;5002737;28;20471;-79
2022/02/01 03:25:11;;;;;;;5.60;3.53;;;4.00;99.90;;;;;;5011919;28;20397;-80
2022/02/01 03:27:55;;;;;;;5.03;2.73;;;4.10;99.90;;;;;;4985161;28;20843;-81
2022/02/01 03:30:40;;;;;;;5.70;3.77;;;4.10;99.90;;;;;;4984658;28;20811;-80
2022/02/01 03:33:24;;;;;;;7.00;3.40;;;4.10;99.90;;;;;;4984631;28;20371;-80
2022/02/01 03:36:10;;;;;;;3.70;3.40;;;4.10;99.90;;;;;;4999029;28;20395;-80
2022/02/01 03:38:54;;;;;;;3.23;2.73;;;4.20;99.90;;;;;;4999389;28;20371;-80
2022/02/01 03:41:39;;;;;;;4.20;3.30;;;4.20;99.90;;;;;;4984883;28;20455;-81
2022/02/01 03:44:23;;;;;;;5.13;3.73;;;4.20;99.90;;;;;;4984374;28;20808;-81
2022/02/01 03:47:08;;;;;;;4.30;3.20;;;4.20;99.90;;;;;;4984150;28;20448;-80
2022/02/01 03:49:54;;;;;;;5.10;3.30;;;4.20;99.90;;;;;;4998870;28;20389;-81
2022/02/01 03:52:38;;;;;;;4.03;3.50;;;4.10;99.90;;;;;;4998568;28;20548;-81
2022/02/01 03:55:23;;;;;;;3.17;2.30;;;4.10;99.90;;;;;;4998954;28;20465;-80
2022/02/01 03:58:08;;;;;;;12.40;4.07;;;4.10;99.90;;;;;;4984068;28;20533;-81
2022/02/01 04:00:52;;;;;;;3.40;3.10;;;4.20;99.90;;;;;;4983990;28;20887;-81
2022/02/01 04:03:37;;;;;;;4.93;3.00;;;4.10;99.90;;;;;;4998925;28;20374;-81
2022/02/01 04:06:22;;;;;;;5.13;4.20;;;4.10;99.90;;;;;;4998990;28;20412;-81
2022/02/01 04:09:06;;;;;;;6.63;3.73;;;4.10;99.90;;;;;;4999733;28;20471;-80
2022/02/01 04:11:54;;;;;;;5.20;3.50;;;4.10;99.90;;;;;;4999100;28;20363;-81
2022/02/01 04:14:38;;;;;;;5.20;3.70;;;4.00;99.90;;;;;;4999360;28;20401;-81
2022/02/01 04:17:23;;;;;;;5.23;3.47;;;4.00;99.90;;;;;;4999381;28;20468;-81
2022/02/01 04:20:09;;;;;;;3.97;3.17;;;4.10;99.90;;;;;;5001622;28;20375;-80
2022/02/01 04:22:54;;;;;;;6.23;4.03;;;4.00;99.90;;;;;;5003459;28;20410;-81
2022/02/01 04:25:39;;;;;;;5.67;4.13;;;3.90;99.90;;;;;;5004054;28;20524;-79
2022/02/01 04:28:24;;;;;;;4.87;3.00;;;3.80;99.90;;;;;;5005020;28;20400;-81
2022/02/01 04:31:10;;;;;;;6.70;3.77;;;3.90;99.90;;;;;;5004171;28;20379;-81
2022/02/01 04:33:55;;;;;;;5.83;4.13;;;3.90;99.90;;;;;;5005938;28;20410;-81
2022/02/01 04:36:40;;;;;;;4.50;4.03;;;3.90;99.90;;;;;;5005712;28;20496;-80
2022/02/01 04:39:24;;;;;;;4.07;2.63;;;3.80;99.90;;;;;;5005798;28;20424;-80
2022/02/01 04:42:09;;;;;;;8.97;4.57;;;3.70;99.90;;;;;;5007034;28;20362;-79
2022/02/01 04:44:54;;;;;;;5.60;4.20;;;3.60;99.90;;;;;;5007631;28;20351;-81
2022/02/01 04:47:39;;;;;;;5.40;3.63;;;3.60;99.90;;;;;;5025318;28;20779;-81
2022/02/01 04:50:27;;;;;;;6.67;3.67;;;3.70;99.90;;;;;;5012343;28;20388;-79
2022/02/01 04:53:11;;;;;;;10.63;4.40;;;3.80;99.90;;;;;;5012689;28;20588;-80
2022/02/01 04:55:56;;;;;;;5.23;3.50;;;3.80;99.90;;;;;;5027744;28;20391;-79
2022/02/01 04:58:41;;;;;;;5.00;3.97;;;3.90;99.90;;;;;;5027441;28;20398;-79
2022/02/01 05:01:36;;;;;;;6.80;5.00;;;3.80;99.90;;;;;;5023193;28;20504;-80
2022/02/01 05:04:21;;;;;;;10.10;3.73;;;3.90;99.90;;;;;;5004075;28;20818;-80
2022/02/01 05:07:06;;;;;;;8.57;5.20;;;4.00;99.90;;;;;;5018458;28;20392;-80
2022/02/01 05:09:51;;;;;;;8.57;5.43;;;3.90;99.90;;;;;;5020837;28;20407;-80
2022/02/01 05:12:38;;;;;;;7.17;5.80;;;4.00;99.90;;;;;;5009214;28;20359;-81
2022/02/01 05:15:22;;;;;;;8.53;4.83;;;4.00;99.90;;;;;;5024273;28;20391;-81
2022/02/01 05:18:13;;;;;;;7.17;4.30;;;3.90;99.90;;;;;;5023562;28;20422;-81
2022/02/01 05:21:05;;;;;;;7.33;4.20;;;4.00;99.90;;;;;;5017901;28;20388;-81
2022/02/01 05:23:51;;;;;;;8.60;4.80;;;3.80;99.90;;;;;;5017563;28;20387;-81
2022/02/01 05:26:36;;;;;;;7.67;4.60;;;3.90;99.90;;;;;;5018396;28;20908;-81
2022/02/01 05:29:22;;;;;;;8.43;4.70;;;3.80;99.90;;;;;;5018064;28;20358;-81
2022/02/01 05:32:22;;;;;;;5.53;4.10;;;3.80;99.90;;;;;;5018467;28;20379;-81
2022/02/01 05:35:07;;;;;;;4.80;3.47;;;3.70;99.90;;;;;;5018906;28;20705;-81
2022/02/01 05:37:51;;;;;;;5.80;3.70;;;3.70;99.90;;;;;;5019261;28;20836;-81
2022/02/01 05:40:36;;;;;;;4.80;3.23;;;3.90;99.90;;;;;;5019124;28;20885;-81
2022/02/01 05:43:25;;;;;;;5.80;3.30;;;3.90;99.90;;;;;;5019319;28;20409;-81
2022/02/01 05:46:10;;;;;;;4.90;3.60;;;3.80;99.90;;;;;;5018793;28;20482;-81
2022/02/01 05:48:54;;;;;;;9.50;4.60;;;3.90;99.90;;;;;;5029336;28;20399;-79
2022/02/01 05:51:39;;;;;;;3.40;2.63;;;3.90;99.90;;;;;;5031258;28;20406;-79
2022/02/01 05:54:27;;;;;;;6.30;3.17;;;4.00;99.90;;;;;;5032179;28;20371;-79
2022/02/01 05:57:11;;;;;;;4.30;2.30;;;4.00;99.90;;;;;;5017140;28;20564;-80
2022/02/01 05:59:56;;;;;;;2.37;1.93;;;4.00;99.90;;;;;;5001970;28;20390;-81
2022/02/01 06:02:40;;;;;;;3.77;3.07;;;4.00;99.90;;;;;;5001817;28;20444;-81
2022/02/01 06:05:25;;;;;;;6.57;2.40;;;4.00;99.90;;;;;;5016435;28;20418;-81
2022/02/01 06:08:10;;;;;;;1.97;1.83;;;3.90;99.90;;;;;;5016589;28;20406;-81
2022/02/01 06:10:55;;;;;;;5.30;1.90;;;3.90;99.90;;;;;;5016483;28;20749;-81
2022/02/01 06:13:39;;;;;;;5.93;2.30;;;3.90;99.90;;;;;;5016640;28;20358;-81
2022/02/01 06:16:24;;;;;;;4.43;2.50;;;3.90;99.90;;;;;;5018612;28;20874;-81
2022/02/01 06:19:10;;;;;;;6.67;2.20;;;3.90;99.90;;;;;;5021558;28;20460;-80
2022/02/01 06:21:55;;;;;;;7.20;2.47;;;3.90;99.90;;;;;;5029285;28;20426;-82
2022/02/01 06:24:39;;;;;;;4.03;2.87;;;3.90;99.90;;;;;;5019784;28;20371;-82
2022/02/01 06:27:25;;;;;;;5.80;1.70;;;4.00;99.90;;;;;;5020043;28;20502;-82
2022/02/01 06:30:10;;;;;;;6.90;2.87;;;4.00;99.90;;;;;;5021402;28;20397;-83
2022/02/01 06:32:55;;;;;;;3.33;2.20;;;4.00;99.90;;;;;;5005157;28;20478;-82
2022/02/01 06:35:39;;;;;;;3.73;2.33;;;4.10;99.90;;;;;;4998557;28;20476;-83
2022/02/01 06:38:24;;;;;;;2.23;2.03;;;4.10;99.90;;;;;;5018136;28;20436;-82
2022/02/01 06:41:08;;;;;;;5.23;2.10;;;4.10;99.90;;;;;;5009696;28;20408;-82
2022/02/01 06:43:53;;;;;;;4.50;1.43;;;4.10;99.90;;;;;;5002233;28;20394;-82
2022/02/01 06:46:37;;;;;;;2.13;1.83;;;4.10;99.90;;;;;;5014302;28;20456;-83
2022/02/01 06:49:23;;;;;;;3.57;2.97;;;4.20;99.90;;;;;;5007383;28;20471;-82
2022/02/01 06:52:07;;;;;;;3.43;2.10;;;4.20;99.90;;;;;;4991729;28;20408;-82
2022/02/01 06:54:52;;;;;;;8.73;3.23;;;4.20;99.90;;;;;;4995028;28;20394;-82
2022/02/01 06:57:37;;;;;;;8.43;2.47;;;4.20;99.90;;;;;;5019930;28;20542;-82
2022/02/01 07:00:21;;;;;;;7.10;2.30;;;4.20;99.90;;;;;;5012004;28;20391;-82
2022/02/01 07:03:06;;;;;;;6.00;2.10;;;4.30;99.90;;;;;;5002162;28;20818;-82
2022/02/01 07:05:51;;;;;;;1.87;1.73;;;4.20;99.90;;;;;;5010205;28;20785;-82
2022/02/01 07:08:35;;;;;;;6.73;2.33;;;4.00;99.90;;;;;;5014838;28;20479;-82
2022/02/01 07:11:21;;;;;;;4.40;1.93;;;4.10;99.90;;;;;;5012408;28;20963;-82
2022/02/01 07:14:07;;;;;;;9.50;1.70;;;4.00;99.90;;;;;;5018289;28;20490;-81
2022/02/01 07:16:52;;;;;;;4.27;1.97;;;4.10;99.90;;;;;;5016048;28;20445;-82
2022/02/01 07:19:36;;;;;;;3.10;2.07;;;4.10;99.90;;;;;;5017640;28;20401;-81
2022/02/01 07:22:21;;;;;;;2.57;1.87;;;4.10;99.90;;;;;;4995526;28;20494;-82
2022/02/01 07:25:14;;;;;;;4.53;2.10;;;4.00;99.90;;;;;;5014671;28;20410;-82
2022/02/01 07:28:03;;;;;;;5.03;1.60;;;4.00;99.90;;;;;;5002417;28;20894;-82
2022/02/01 07:30:47;;;;;;;4.10;1.67;;;3.90;99.90;;;;;;5013190;28;20504;-82
2022/02/01 07:33:32;;;;;;;5.23;1.50;;;4.00;99.90;;;;;;5013970;28;20402;-82
2022/02/01 07:36:17;;;;;;;7.43;2.30;;;4.00;99.90;;;;;;4995610;28;20422;-82
2022/02/01 07:39:02;;;;;;;9.23;1.63;;;4.00;99.90;;;;;;5016169;28;20458;-82
2022/02/01 07:41:46;;;;;;;3.40;1.80;;;4.00;99.90;;;;;;5016053;28;20482;-81
2022/02/01 07:44:31;;;;;;;10.83;3.70;;;4.00;99.90;;;;;;5011442;28;20447;-82
2022/02/01 07:47:21;;;;;;;13.77;2.70;;;3.80;99.90;;;;;;4997886;28;20534;-82
2022/02/01 07:50:07;;;;;;;10.90;2.10;;;4.00;99.90;;;;;;5015218;28;21160;-82
2022/02/01 07:52:52;;;;;;;13.90;2.53;;;4.00;99.90;;;;;;4995004;28;20563;-82
2022/02/01 07:55:37;;;;;;;6.30;2.00;;;4.00;99.90;;;;;;5011515;28;20427;-81
2022/02/01 07:58:22;;;;;;;6.43;2.30;;;4.10;99.90;;;;;;5014155;28;20471;-82
2022/02/01 08:01:07;;;;;;;13.40;2.23;;;4.20;99.90;;;;;;4996705;28;20530;-82
2022/02/01 08:03:51;;;;;;;20.10;3.70;;;4.20;99.90;;;;;;5013781;28;20492;-81
2022/02/01 08:06:37;;;;;;;3.23;2.70;;;4.20;99.90;;;;;;5011599;28;20455;-82
2022/02/01 08:09:26;;;;;;;10.77;2.83;;;4.20;99.90;;;;;;5002201;28;20459;-82
2022/02/01 08:15:44;;;;;;;6.70;2.60;;;4.30;99.90;;;;;;4997692;28;20439;-82
2022/02/01 08:18:31;;;;;;;3.73;2.10;;;4.30;99.90;;;;;;5008868;28;20488;-82
2022/02/01 08:21:24;;;;;;;6.50;3.27;;;4.20;99.90;;;;;;5001175;28;20462;-81
2022/02/01 08:24:09;;;;;;;5.90;2.37;;;4.30;99.90;;;;;;5010955;28;20423;-80
2022/02/01 08:26:54;;;;;;;9.90;3.03;;;4.20;99.90;;;;;;5010838;28;20439;-80
2022/02/01 08:29:38;;;;;;;11.07;2.60;;;4.30;99.90;;;;;;5011442;28;20474;-81
2022/02/01 08:32:23;;;;;;;5.60;2.30;;;4.20;99.90;;;;;;5012566;28;20431;-80
2022/02/01 08:35:08;;;;;;;4.87;2.93;;;4.20;99.90;;;;;;5008501;28;20414;-80
2022/02/01 08:37:52;;;;;;;8.73;3.00;;;4.30;99.90;;;;;;4989041;28;20512;-81
2022/02/01 08:40:36;;;;;;;6.83;2.97;;;4.40;99.90;;;;;;5004153;28;20487;-81
2022/02/01 08:43:21;;;;;;;7.70;2.50;;;4.40;99.90;;;;;;5002146;28;20434;-81
2022/02/01 08:46:06;;;;;;;9.43;3.33;;;4.30;99.90;;;;;;5003400;28;20431;-82
2022/02/01 08:48:51;;;;;;;2.07;1.70;;;4.20;99.90;;;;;;5004283;28;20454;-82
2022/02/01 08:51:40;;;;;;;4.97;3.10;;;4.00;99.90;;;;;;4986610;28;20766;-83
2022/02/01 08:54:27;;;;;;;5.63;2.87;;;3.90;99.90;;;;;;4995994;28;20415;-81
2022/02/01 09:00:11;;;;;;;6.83;2.67;;;4.20;99.90;;;;;;5008509;28;21069;-82
2022/02/01 09:02:57;;;;;;;8.97;2.70;;;4.20;99.90;;;;;;4995355;28;20674;-81
2022/02/01 09:05:49;;;;;;;5.40;2.07;;;4.30;99.90;;;;;;5010177;28;20435;-82
2022/02/01 09:08:33;;;;;;;5.80;3.20;;;4.30;99.90;;;;;;4992578;28;20422;-82
2022/02/01 09:11:18;;;;;;;7.33;3.73;;;4.40;99.90;;;;;;5015772;28;20443;-82
2022/02/01 09:14:02;;;;;;;11.47;3.20;;;4.40;99.90;;;;;;5004830;28;20932;-82
2022/02/01 09:16:47;;;;;;;5.00;2.80;;;4.50;99.90;;;;;;5013695;28;20979;-82
2022/02/01 09:19:32;;;;;;;3.63;2.60;;;4.50;99.90;;;;;;4992297;28;20447;-80
2022/02/01 09:22:16;;;;;;;8.20;3.07;;;4.40;99.90;;;;;;4999440;28;20451;-81
2022/02/01 09:25:02;;;;;;;10.43;2.67;;;4.50;99.90;;;;;;5011812;28;20950;-82
2022/02/01 09:27:48;;;;;;;9.60;2.90;;;4.60;99.90;;;;;;5013380;28;20422;-82
2022/02/01 09:30:34;;;;;;;7.77;2.90;;;4.30;99.90;;;;;;5012102;28;20476;-82
2022/02/01 09:33:18;;;;;;;9.07;3.17;;;4.50;99.90;;;;;;4998664;28;20446;-82
2022/02/01 09:36:05;;;;;;;5.87;2.30;;;4.40;99.90;;;;;;5012594;28;20421;-82
2022/02/01 09:38:52;;;;;;;15.47;2.40;;;4.40;99.90;;;;;;5009114;28;20491;-82
2022/02/01 09:41:40;;;;;;;7.20;3.33;;;4.50;99.90;;;;;;5001312;28;20491;-82
2022/02/01 09:44:24;;;;;;;5.90;2.97;;;4.50;99.90;;;;;;5011411;28;20428;-81
2022/02/01 09:47:10;;;;;;;6.50;2.90;;;4.50;99.90;;;;;;5009804;28;20456;-82
2022/02/01 09:49:54;;;;;;;8.87;3.10;;;4.50;99.90;;;;;;4995904;28;20757;-81
2022/02/01 09:52:39;;;;;;;9.70;4.30;;;4.50;99.90;;;;;;4991235;28;20727;-82
2022/02/01 09:55:23;;;;;;;5.33;2.30;;;4.60;99.90;;;;;;5004521;28;20881;-82
2022/02/01 09:58:12;;;;;;;6.77;2.93;;;4.40;99.90;;;;;;5014109;28;20542;-81
2022/02/01 10:00:57;;;;;;;7.40;3.67;;;4.30;99.90;;;;;;4996493;28;20522;-81
2022/02/01 10:03:41;;;;;;;8.50;3.63;;;4.20;99.90;;;;;;4982497;28;20428;-81
2022/02/01 10:06:31;;;;;;;6.43;3.43;;;4.20;99.90;;;;;;4992304;28;20429;-81
2022/02/01 10:09:15;;;;;;;5.57;3.00;;;4.10;99.90;;;;;;4988411;28;20465;-80
2022/02/01 10:12:00;;;;;;;6.83;2.23;;;4.10;99.90;;;;;;4980011;28;20440;-80
2022/02/01 10:14:56;;;;;;;12.33;3.10;;;4.20;99.90;;;;;;4991957;28;20440;-80
2022/02/01 10:17:47;;;;;;;10.00;4.30;;;4.20;99.90;;;;;;4995740;28;20472;-80
2022/02/01 10:20:42;;;;;;;8.60;3.40;;;4.40;99.90;;;;;;4990121;28;20479;-81
2022/02/01 10:23:30;;;;;;;3.53;2.23;;;4.50;99.90;;;;;;4998625;28;20450;-80
2022/02/01 10:26:20;;;;;;;6.70;2.13;;;4.40;99.90;;;;;;4982297;28;20407;-80
2022/02/01 10:29:12;;;;;;;3.87;2.10;;;4.50;99.90;;;;;;4987708;28;20491;-80
2022/02/01 10:31:59;;;;;;;4.03;3.00;;;4.50;99.90;;;;;;4980128;28;20505;-79
2022/02/01 10:34:46;;;;;;;19.73;4.00;;;4.40;99.90;;;;;;4983053;28;20430;-82
2022/02/01 10:37:30;;;;;;;3.20;2.67;;;4.50;99.90;;;;;;4971596;28;20936;-80
2022/02/01 10:40:15;;;;;;;7.23;2.63;;;4.30;99.90;;;;;;4991968;28;20492;-81
2022/02/01 10:43:04;;;;;;;7.80;1.90;;;4.40;99.90;;;;;;4980796;28;20501;-81
2022/02/01 10:45:50;;;;;;;6.00;2.83;;;4.60;99.90;;;;;;4985876;28;20396;-80
2022/02/01 10:48:35;;;;;;;9.90;3.90;;;4.60;99.90;;;;;;4984170;28;20428;-82
2022/02/01 10:51:22;;;;;;;3.90;1.90;;;4.50;99.90;;;;;;4985100;28;20467;-82
2022/02/01 10:54:07;;;;;;;16.73;2.77;;;4.60;99.90;;;;;;5002160;28;20439;-82
2022/02/01 10:56:51;;;;;;;17.03;3.10;;;4.60;99.90;;;;;;4992580;28;20987;-82
2022/02/01 10:59:37;;;;;;;4.40;1.93;;;4.70;99.90;;;;;;4994644;28;20502;-83
2022/02/01 11:02:24;;;;;;;4.50;1.73;;;4.50;99.90;;;;;;4983626;28;20787;-82
2022/02/01 11:05:11;;;;;;;2.43;2.03;;;4.60;99.90;;;;;;4993929;28;20407;-81
2022/02/01 11:07:56;;;;;;;7.60;2.70;;;4.40;99.90;;;;;;4993306;28;20460;-81
2022/02/01 11:10:45;;;;;;;6.20;2.50;;;4.30;99.90;;;;;;4976310;28;20448;-81
2022/02/01 11:13:40;;;;;;;4.07;2.33;;;4.40;99.90;;;;;;4979366;28;20464;-81
2022/02/01 11:16:27;;;;;;;5.27;2.37;;;4.70;99.90;;;;;;4979533;28;20745;-82
2022/02/01 11:19:11;;;;;;;2.93;1.83;;;4.80;99.90;;;;;;4978589;28;20439;-81
2022/02/01 11:21:56;;;;;;;4.10;2.63;;;4.90;99.90;;;;;;4979815;28;20434;-81
2022/02/01 11:24:50;;;;;;;2.43;2.23;;;4.80;99.90;;;;;;4991601;28;20469;-81
2022/02/01 11:28:12;;;;;;;8.93;2.40;;;5.00;99.90;;;;;;4994965;28;20451;-80
2022/02/01 11:30:58;;;;;;;5.67;3.50;;;5.30;99.90;;;;;;4991594;28;20436;-81
2022/02/01 11:33:48;;;;;;;5.73;2.93;;;5.50;99.90;;;;;;4992820;28;20431;-82
2022/02/01 11:36:40;;;;;;;5.83;2.30;;;5.40;99.90;;;;;;4990111;28;20452;-80
2022/02/01 11:39:25;;;;;;;19.33;3.20;;;5.60;99.90;;;;;;4990271;28;20465;-82
2022/02/01 11:42:13;;;;;;;4.03;2.30;;;5.40;99.90;;;;;;4975737;28;20422;-81
2022/02/01 11:45:04;;;;;;;19.30;2.43;;;5.50;99.90;;;;;;4980899;28;20913;-80
2022/02/01 11:47:49;;;;;;;2.83;2.20;;;5.20;99.90;;;;;;4996397;28;20436;-79
2022/02/01 11:50:56;;;;;;;3.30;1.70;;;5.20;99.90;;;;;;4997361;28;20431;-81
2022/02/01 11:53:46;;;;;;;3.27;2.17;;;5.10;99.90;;;;;;4994619;28;20468;-82
2022/02/01 11:56:33;;;;;;;10.97;2.30;;;5.10;99.90;;;;;;4996363;28;20444;-82
2022/02/01 11:59:26;;;;;;;2.63;2.20;;;4.90;99.90;;;;;;4986088;28;20438;-82
2022/02/01 12:02:25;;;;;;;4.03;2.60;;;4.90;99.90;;;;;;4992701;28;20991;-81
2022/02/01 12:05:30;;;;;;;3.03;2.30;;;4.90;99.90;;;;;;4994351;28;20522;-81
2022/02/01 12:08:15;;;;;;;8.87;2.70;;;4.80;99.90;;;;;;4999825;28;20523;-81
2022/02/01 12:11:04;;;;;;;5.80;2.80;;;4.90;99.90;;;;;;4996498;28;20438;-80
2022/02/01 12:13:48;;;;;;;3.80;2.63;;;4.90;99.90;;;;;;5009743;28;20963;-81
2022/02/01 12:16:34;;;;;;;2.23;1.87;;;4.90;99.90;;;;;;5009222;28;20850;-81
2022/02/01 12:19:37;;;;;;;5.03;2.50;;;4.70;99.90;;;;;;5005949;28;20423;-81
2022/02/01 12:22:36;;;;;;;11.57;2.73;;;4.80;99.90;;;;;;5003423;28;20446;-81
2022/02/01 12:25:25;;;;;;;7.93;2.07;;;4.80;99.90;;;;;;4996004;28;20509;-82
2022/02/01 12:28:18;;;;;;;3.03;1.87;;;4.80;99.90;;;;;;5010821;28;20454;-81
2022/02/01 12:31:30;;;;;;;8.67;2.77;;;5.00;99.90;;;;;;5015280;28;20424;-80
2022/02/01 12:34:17;;;;;;;5.53;2.00;;;5.00;99.90;;;;;;4953263;28;20441;-81
2022/02/01 12:37:02;;;;;;;13.03;3.07;;;4.80;99.90;;;;;;4953815;28;20468;-81
2022/02/01 12:39:58;;;;;;;5.60;2.53;;;4.90;99.90;;;;;;4954922;28;20782;-80
2022/02/01 12:42:46;;;;;;;5.60;2.27;;;4.80;99.90;;;;;;4952617;28;20526;-81
2022/02/01 12:45:54;;;;;;;6.83;2.50;;;4.90;99.90;;;;;;4956053;28;20418;-82
2022/02/01 12:48:45;;;;;;;4.90;1.70;;;4.80;99.90;;;;;;4958279;28;20942;-81
2022/02/01 12:51:39;;;;;;;1.93;1.83;;;4.80;99.90;;;;;;4957520;28;20497;-81
2022/02/01 12:54:27;;;;;;;3.80;1.90;;;4.80;99.90;;;;;;4951227;28;20508;-81
2022/02/01 12:57:16;;;;;;;2.30;2.10;;;4.90;99.90;;;;;;4963613;28;20546;-82
2022/02/01 13:00:08;;;;;;;7.20;2.60;;;4.80;99.90;;;;;;4947151;28;21971;-82
2022/02/01 13:02:55;;;;;;;2.00;1.80;;;4.40;99.90;;;;;;4942755;28;20474;-82
2022/02/01 13:05:40;;;;;;;8.33;2.43;;;4.40;99.90;;;;;;4989487;28;20976;-82
2022/02/01 13:08:38;;;;;;;11.03;2.83;;;4.10;99.90;;;;;;4991970;28;20423;-79
2022/02/01 13:14:38;;;;;;;1.87;1.60;;;4.20;99.90;;;;;;4993126;28;20429;-81
2022/02/01 13:20:24;;;;;;;3.67;2.40;;;4.40;99.90;;;;;;4996365;28;20447;-82
2022/02/01 13:23:11;;;;;;;4.10;2.90;;;4.10;99.90;;;;;;4979615;28;21066;-83
2022/02/01 13:25:55;;;;;;;6.37;2.30;;;3.80;99.90;;;;;;5002207;28;20464;-82
2022/02/01 13:28:43;;;;;;;1.97;1.87;;;3.80;99.90;;;;;;4969689;28;20815;-82
2022/02/01 13:31:32;;;;;;;3.13;1.97;;;3.70;99.90;;;;;;5000976;28;20970;-81
2022/02/01 13:34:25;;;;;;;7.35;3.45;;;3.60;99.90;;;;;;5004690;28;20410;-82
2022/02/01 13:37:20;;;;;;;2.10;1.70;;;3.80;99.90;;;;;;5001621;28;20275;-82
2022/02/01 13:40:05;;;;;;;8.80;2.63;;;3.90;99.90;;;;;;4999974;28;20442;-82
2022/02/01 13:42:49;;;;;;;2.03;1.83;;;4.10;99.90;;;;;;4998336;28;20511;-82
2022/02/01 13:45:36;;;;;;;2.03;1.93;;;4.20;99.90;;;;;;5006161;28;20390;-82
2022/02/01 13:48:23;;;;;;;1.70;1.60;;;4.40;99.90;;;;;;4973311;28;20471;-81
2022/02/01 13:51:08;;;;;;;2.70;2.40;;;4.20;99.90;;;;;;4995878;28;20443;-81
2022/02/01 13:53:58;;;;;;;1.90;1.80;;;4.30;99.90;;;;;;4989914;28;20458;-81
2022/02/01 13:56:46;;;;;;;3.10;2.83;;;4.10;99.90;;;;;;4998871;28;20428;-81
2022/02/01 13:59:30;;;;;;;4.03;2.57;;;3.80;99.90;;;;;;4996886;28;20478;-81
2022/02/01 14:02:28;;;;;;;3.40;1.80;;;3.50;99.90;;;;;;5004908;28;20484;-81
2022/02/01 14:05:24;;;;;;;2.90;1.10;;;3.50;99.90;;;;;;4998753;28;20482;-81
2022/02/01 14:08:25;;;;;;;4.47;3.10;;;3.60;99.90;;;;;;4979769;28;20411;-81
2022/02/01 14:11:37;;;;;;;12.83;2.10;;;3.90;99.90;;;;;;4981328;28;20434;-79
2022/02/01 14:22:32;;;;;;;7.60;2.93;;;4.10;99.90;;;;;;4984380;28;20276;-80
2022/02/01 14:24:24;;;;;;;2.07;1.53;;;4.00;99.90;;;;;;4982921;28;20851;-81
2022/02/01 14:26:43;;;;;;;2.73;2.37;;;4.00;99.90;;;;;;4982877;28;20473;-81
2022/02/01 14:33:05;;;;;;;2.17;1.87;;;3.60;99.90;;;;;;4970031;28;20464;-81
2022/02/01 14:35:29;;;;;;;4.23;1.50;;;3.70;99.90;;;;;;5000069;28;20420;-81
2022/02/01 14:44:30;;;;;;;2.30;2.10;;;3.40;99.90;;;;;;5014552;28;20454;-81
2022/02/01 14:47:17;;;;;;;2.40;2.17;;;3.70;99.90;;;;;;5014699;28;20439;-80
2022/02/01 14:50:04;;;;;;;1.77;1.53;;;3.70;99.90;;;;;;5017986;28;20445;-81
2022/02/01 14:52:48;;;;;;;2.30;2.13;;;3.50;99.90;;;;;;5041003;28;20418;-82
2022/02/01 14:55:40;;;;;;;1.73;1.43;;;3.50;99.90;;;;;;5016859;28;20450;-81
2022/02/01 15:07:36;;;;;;;1.77;1.67;;;3.40;99.90;;;;;;4981696;28;20446;-80
2022/02/01 15:13:24;;;;;;;2.90;2.13;;;3.30;99.90;;;;;;5003511;28;20432;-80
2022/02/01 15:16:10;;;;;;;2.03;1.90;;;3.30;99.90;;;;;;4989068;28;20461;-81
2022/02/01 15:18:54;;;;;;;1.67;1.50;;;3.40;99.90;;;;;;4996715;28;20455;-81
2022/02/01 15:21:39;;;;;;;1.77;1.67;;;3.10;99.90;;;;;;4979024;28;20453;-81
2022/02/01 15:24:23;;;;;;;4.00;1.60;;;3.10;99.90;;;;;;4972067;28;20468;-82
2022/02/01 15:27:08;;;;;;;3.43;2.93;;;3.10;99.90;;;;;;4966367;28;20411;-81
2022/02/01 15:29:53;;;;;;;1.70;1.43;;;3.40;99.90;;;;;;4995976;28;20831;-82
2022/02/01 15:32:38;;;;;;;1.63;1.30;;;3.50;99.90;;;;;;4993193;28;20475;-82
2022/02/01 15:35:22;;;;;;;1.70;1.60;;;3.30;99.90;;;;;;4983244;28;20423;-81
2022/02/01 15:38:09;;;;;;;3.17;2.87;;;3.30;99.90;;;;;;5007607;28;20785;-81
2022/02/01 15:56:31;;;;;;;9.07;2.77;;;3.40;99.90;;;;;;4994137;28;20476;-83
2022/02/01 15:59:07;;;;;;;3.83;2.70;;;3.50;99.90;;;;;;4994074;28;20946;-82
2022/02/01 16:01:55;;;;;;;2.10;1.60;;;3.50;99.90;;;;;;4999717;28;20500;-82
2022/02/01 16:04:43;;;;;;;1.43;1.33;;;3.40;99.90;;;;;;5012198;28;20412;-82
2022/02/01 16:07:28;;;;;;;1.40;1.30;;;3.30;99.90;;;;;;5017222;28;20865;-83
2022/02/01 16:13:22;;;;;;;1.57;1.47;;;3.30;99.90;;;;;;5017429;28;20441;-83
2022/02/01 16:16:09;;;;;;;1.70;1.60;;;3.20;99.90;;;;;;5019751;28;20378;-83
2022/02/01 16:18:54;;;;;;;1.00;1.00;;;3.50;99.90;;;;;;5012215;28;20461;-82
2022/02/01 16:21:39;;;;;;;2.10;1.67;;;3.50;99.90;;;;;;5018732;28;20759;-83
2022/02/01 16:24:24;;;;;;;1.30;1.20;;;3.50;99.90;;;;;;4975065;28;20445;-82
2022/02/01 16:27:08;;;;;;;1.50;1.37;;;3.70;99.90;;;;;;5015684;28;20420;-83
2022/02/01 16:30:11;;;;;;;1.30;1.20;;;3.60;99.90;;;;;;5019089;28;20447;-82
2022/02/01 16:32:56;;;;;;;1.20;1.10;;;3.70;99.90;;;;;;5020341;28;20494;-81
2022/02/01 16:35:41;;;;;;;1.40;1.30;;;3.70;99.90;;;;;;5024066;28;20556;-83
2022/02/01 16:38:26;;;;;;;1.33;1.20;;;3.80;99.90;;;;;;5025410;28;20433;-83